Time;durP1;ratioP1;P1;durP2;ratioP2;P2;SDS_P1;SDS_P2;PMS_P1;PMS_P2;Temp;Humidity;BMP_temperature;BMP_pressure;BME280_temperature;BME280_humidity;BME280_pressure;Samples;Min_cycle;Max_cycle;Signal;HPM_P1;HPM_P2
2022/06/02 00:00:16;;;;;;;7.57;6.88;;;10.40;99.90;;;;;;5068514;28;20032;-47
2022/06/02 00:03:15;;;;;;;9.15;6.90;;;10.40;99.90;;;;;;5069001;28;20044;-47
2022/06/02 00:05:52;;;;;;;8.00;7.30;;;10.40;99.90;;;;;;5063593;28;20056;-47
2022/06/02 00:08:20;;;;;;;8.70;7.75;;;10.30;99.90;;;;;;5084181;28;20097;-47
2022/06/02 00:11:13;;;;;;;8.30;7.50;;;10.20;99.90;;;;;;5068464;28;20052;-46
2022/06/02 00:13:41;;;;;;;7.50;6.88;;;10.20;99.90;;;;;;5067212;28;20350;-46
2022/06/02 00:16:14;;;;;;;7.50;6.88;;;10.20;99.90;;;;;;5072758;28;20025;-46
2022/06/02 00:18:51;;;;;;;8.68;7.95;;;10.10;99.90;;;;;;5073093;28;20029;-47
2022/06/02 00:21:30;;;;;;;8.48;7.50;;;10.10;99.90;;;;;;5072317;28;20086;-47
2022/06/02 00:24:00;;;;;;;9.00;8.20;;;10.00;99.90;;;;;;5071467;28;20716;-47
2022/06/02 00:26:52;;;;;;;7.35;6.75;;;10.00;99.90;;;;;;5072898;28;20033;-48
2022/06/02 00:29:32;;;;;;;8.00;7.18;;;10.00;99.90;;;;;;5070345;28;20391;-47
2022/06/02 00:32:19;;;;;;;7.72;7.03;;;10.00;99.90;;;;;;5070830;28;20401;-47
2022/06/02 00:35:06;;;;;;;8.02;7.32;;;10.00;99.90;;;;;;5071778;28;20047;-48
2022/06/02 00:37:40;;;;;;;9.70;8.68;;;10.00;99.90;;;;;;5071051;28;20094;-47
2022/06/02 00:40:09;;;;;;;6.95;6.35;;;10.00;99.90;;;;;;5070806;28;20032;-47
2022/06/02 00:42:47;;;;;;;149.23;14.75;;;10.00;99.90;;;;;;5071468;28;20324;-47
2022/06/02 00:45:15;;;;;;;6.97;6.30;;;10.00;99.90;;;;;;5071740;28;20565;-48
2022/06/02 00:47:49;;;;;;;9.73;5.38;;;9.90;99.90;;;;;;5069025;28;20044;-50
2022/06/02 00:50:48;;;;;;;22.63;4.38;;;9.80;99.90;;;;;;5072825;28;20044;-47
2022/06/02 00:53:13;;;;;;;4.18;3.88;;;9.70;99.90;;;;;;5071219;28;20405;-46
2022/06/02 00:58:58;;;;;;;4.50;4.10;;;9.60;99.90;;;;;;5073040;28;20048;-47
2022/06/02 01:01:33;;;;;;;4.90;4.60;;;9.60;99.90;;;;;;5071937;28;20086;-47
2022/06/02 01:04:01;;;;;;;6.43;5.90;;;9.60;99.90;;;;;;5071467;28;20405;-47
2022/06/02 01:06:54;;;;;;;5.95;5.45;;;9.60;99.90;;;;;;5072585;28;20060;-46
2022/06/02 01:09:53;;;;;;;7.72;6.70;;;9.70;99.90;;;;;;5052437;28;20033;-47
2022/06/02 01:12:33;;;;;;;7.18;6.57;;;9.70;99.90;;;;;;5069854;28;20047;-47
2022/06/02 01:15:18;;;;;;;8.07;6.20;;;9.70;99.90;;;;;;5069309;28;20397;-47
2022/06/02 01:17:56;;;;;;;5.60;5.07;;;9.70;99.90;;;;;;5072366;28;20051;-47
2022/06/02 01:20:39;;;;;;;4.63;4.32;;;9.70;99.90;;;;;;5072620;28;20033;-46
2022/06/02 01:23:42;;;;;;;4.35;4.03;;;9.70;99.90;;;;;;5070758;28;20933;-47
2022/06/02 01:26:19;;;;;;;3.20;3.00;;;9.70;99.90;;;;;;5071078;28;20048;-47
2022/06/02 01:28:48;;;;;;;2.78;2.58;;;9.60;99.90;;;;;;5072199;28;20406;-48
2022/06/02 01:31:44;;;;;;;2.70;2.60;;;9.60;99.90;;;;;;5071901;28;20037;-47
2022/06/02 01:34:47;;;;;;;2.90;2.60;;;9.50;99.90;;;;;;5071342;28;20041;-47
2022/06/02 01:37:20;;;;;;;5.57;4.60;;;9.40;99.90;;;;;;4989721;28;20442;-46
2022/06/02 01:40:05;;;;;;;8.52;6.03;;;9.40;99.90;;;;;;5070754;28;20041;-47
2022/06/02 01:42:33;;;;;;;12.05;7.13;;;9.30;99.90;;;;;;5070063;28;20048;-49
2022/06/02 01:45:11;;;;;;;25.42;9.00;;;9.20;99.90;;;;;;5070955;28;20115;-46
2022/06/02 01:47:42;;;;;;;17.88;8.85;;;9.20;99.90;;;;;;5062296;28;20108;-47
2022/06/02 01:50:27;;;;;;;9.48;8.55;;;9.10;99.90;;;;;;5071750;28;20037;-46
2022/06/02 01:53:14;;;;;;;25.40;8.13;;;9.10;99.90;;;;;;5070158;28;20063;-46
2022/06/02 01:55:55;;;;;;;6.28;5.78;;;9.00;99.90;;;;;;5071160;28;20040;-47
2022/06/02 01:58:38;;;;;;;6.47;5.97;;;9.00;99.90;;;;;;5071706;28;20556;-47
2022/06/02 02:01:12;;;;;;;8.32;7.57;;;9.00;99.90;;;;;;5071250;28;20045;-46
2022/06/02 02:03:53;;;;;;;8.32;7.50;;;9.00;99.90;;;;;;5070127;28;20044;-48
2022/06/02 02:06:18;;;;;;;9.70;8.25;;;9.10;99.90;;;;;;5069711;28;20047;-46
2022/06/02 02:09:11;;;;;;;8.17;7.47;;;9.10;99.90;;;;;;5071295;28;20044;-47
2022/06/02 02:11:59;;;;;;;9.10;8.27;;;9.20;99.90;;;;;;5071099;28;20120;-48
2022/06/02 02:14:30;;;;;;;10.05;8.25;;;9.20;99.90;;;;;;5070098;28;20032;-47
2022/06/02 02:17:23;;;;;;;10.15;8.27;;;9.20;99.90;;;;;;5070563;28;20048;-47
2022/06/02 02:20:04;;;;;;;8.70;7.90;;;9.20;99.90;;;;;;5070664;28;20618;-47
2022/06/02 02:22:54;;;;;;;9.20;8.40;;;9.20;99.90;;;;;;5070387;28;20046;-47
2022/06/02 02:25:46;;;;;;;9.68;7.30;;;9.20;99.90;;;;;;5070920;28;20044;-46
2022/06/02 02:28:33;;;;;;;7.38;6.78;;;9.20;99.90;;;;;;5058814;28;20050;-46
2022/06/02 02:31:32;;;;;;;6.78;6.28;;;9.10;99.90;;;;;;5070904;28;20037;-46
2022/06/02 02:34:26;;;;;;;7.25;6.65;;;9.10;99.90;;;;;;5069997;28;20413;-46
2022/06/02 02:37:02;;;;;;;6.70;6.00;;;9.10;99.90;;;;;;5070234;28;20516;-47
2022/06/02 02:39:43;;;;;;;5.93;5.43;;;9.10;99.90;;;;;;5069054;28;20049;-47
2022/06/02 02:42:21;;;;;;;5.07;4.60;;;9.10;99.90;;;;;;5069467;28;20036;-46
2022/06/02 02:44:56;;;;;;;38.85;7.55;;;9.10;99.90;;;;;;5069845;28;20044;-47
2022/06/02 02:47:33;;;;;;;22.05;4.43;;;9.10;99.90;;;;;;5070298;28;20033;-47
2022/06/02 02:50:14;;;;;;;6.05;5.55;;;9.00;99.90;;;;;;5070332;28;20429;-47
2022/06/02 02:52:55;;;;;;;5.88;5.38;;;8.90;99.90;;;;;;5069618;28;20126;-46
2022/06/02 02:55:33;;;;;;;7.25;5.75;;;8.90;99.90;;;;;;5070445;28;20037;-47
2022/06/02 02:58:31;;;;;;;4.82;4.50;;;8.80;99.90;;;;;;5068641;28;20037;-46
2022/06/02 03:01:27;;;;;;;5.40;5.03;;;8.80;99.90;;;;;;5069755;28;20378;-47
2022/06/02 03:04:10;;;;;;;6.70;6.20;;;8.80;99.90;;;;;;5069655;28;20044;-47
2022/06/02 03:06:39;;;;;;;5.20;4.80;;;8.80;99.90;;;;;;5069841;28;20028;-47
2022/06/02 03:09:27;;;;;;;5.22;4.82;;;8.70;99.90;;;;;;5069556;28;20111;-47
2022/06/02 03:11:52;;;;;;;5.90;5.10;;;8.70;99.90;;;;;;5069159;28;20128;-48
2022/06/02 03:14:43;;;;;;;5.50;5.00;;;8.60;99.90;;;;;;5069452;28;20520;-47
2022/06/02 03:17:23;;;;;;;3.92;3.25;;;8.60;99.90;;;;;;5069898;28;20329;-46
2022/06/02 03:19:59;;;;;;;5.25;4.82;;;8.50;99.90;;;;;;5069345;28;20036;-46
2022/06/02 03:23:06;;;;;;;4.07;3.78;;;8.40;99.90;;;;;;5069357;28;20044;-47
2022/06/02 03:25:42;;;;;;;5.72;4.40;;;8.40;99.90;;;;;;4991425;28;20049;-47
2022/06/02 03:28:16;;;;;;;4.90;4.50;;;8.40;99.90;;;;;;5007956;28;20480;-46
2022/06/02 03:30:45;;;;;;;5.18;4.78;;;8.40;99.90;;;;;;5003098;28;20559;-47
2022/06/02 03:33:30;;;;;;;3.60;3.28;;;8.30;99.90;;;;;;4982331;28;20405;-46
2022/06/02 03:36:32;;;;;;;3.50;3.30;;;8.30;99.90;;;;;;4985955;28;20113;-47
2022/06/02 03:39:34;;;;;;;5.15;4.75;;;8.30;99.90;;;;;;5007139;28;20041;-47
2022/06/02 03:42:12;;;;;;;4.50;4.10;;;8.30;99.90;;;;;;4983876;28;20045;-46
2022/06/02 03:45:02;;;;;;;19.20;4.25;;;8.30;99.90;;;;;;4987592;28;20050;-47
2022/06/02 03:47:39;;;;;;;36.75;5.90;;;8.20;99.90;;;;;;4989999;28;20061;-47
2022/06/02 03:50:16;;;;;;;;;;;8.10;99.90;;;;;;4990656;28;20054;-47
2022/06/02 03:52:44;;;;;;;59.13;6.40;;;8.00;99.90;;;;;;4974264;28;19922;-49
2022/06/02 03:55:15;;;;;;;34.47;5.20;;;8.00;99.90;;;;;;4976423;28;20051;-47
2022/06/02 03:58:37;;;;;;;36.17;5.90;;;7.90;99.90;;;;;;5071729;28;20744;-49
2022/06/02 04:01:08;;;;;;;21.23;6.60;;;7.90;99.90;;;;;;5031371;28;20045;-48
2022/06/02 04:03:47;;;;;;;6.75;6.15;;;7.80;99.90;;;;;;5022349;28;20120;-47
2022/06/02 04:06:31;;;;;;;8.60;7.82;;;7.90;99.90;;;;;;5041459;28;20492;-46
2022/06/02 04:09:03;;;;;;;11.63;10.48;;;8.00;99.90;;;;;;5053689;28;20083;-47
2022/06/02 04:14:57;;;;;;;15.50;13.05;;;8.20;99.90;;;;;;5062211;28;20040;-47
2022/06/02 04:18:05;;;;;;;15.25;13.65;;;8.20;99.90;;;;;;5073150;28;20417;-47
2022/06/02 04:20:56;;;;;;;15.27;13.68;;;8.30;99.90;;;;;;5047529;28;20049;-47
2022/06/02 04:23:47;;;;;;;14.88;13.27;;;8.40;99.90;;;;;;5071510;28;20037;-47
2022/06/02 04:26:22;;;;;;;18.38;16.40;;;8.50;99.90;;;;;;5071676;28;20094;-47
2022/06/02 04:29:03;;;;;;;17.73;15.00;;;8.50;99.90;;;;;;5057641;28;20040;-46
2022/06/02 04:31:48;;;;;;;18.55;15.20;;;8.60;99.90;;;;;;5071806;28;20457;-47
2022/06/02 04:34:34;;;;;;;15.63;13.82;;;8.70;99.90;;;;;;5071668;28;20072;-47
2022/06/02 04:37:27;;;;;;;16.73;14.05;;;8.70;99.90;;;;;;5059715;28;20032;-47
2022/06/02 04:40:04;;;;;;;14.98;13.27;;;8.80;99.90;;;;;;5072257;28;20047;-48
2022/06/02 04:42:50;;;;;;;14.10;12.68;;;8.80;99.90;;;;;;5070542;28;20047;-46
2022/06/02 04:45:31;;;;;;;15.43;13.75;;;8.90;99.90;;;;;;5070350;28;20412;-46
2022/06/02 04:48:35;;;;;;;15.85;13.25;;;8.90;99.90;;;;;;5069811;28;20044;-46
2022/06/02 04:51:28;;;;;;;21.92;16.13;;;9.00;99.90;;;;;;5068057;28;20040;-47
2022/06/02 04:54:13;;;;;;;18.30;15.02;;;9.10;99.90;;;;;;5070570;28;20122;-46
2022/06/02 04:56:46;;;;;;;20.40;17.23;;;9.10;99.90;;;;;;5070588;28;20037;-47
2022/06/02 04:59:16;;;;;;;20.10;17.40;;;9.20;99.90;;;;;;5070641;28;20496;-47
2022/06/02 05:02:10;;;;;;;20.13;16.65;;;9.30;99.90;;;;;;5068621;28;20049;-47
2022/06/02 05:05:05;;;;;;;22.85;18.95;;;9.30;99.90;;;;;;5069508;28;20041;-47
2022/06/02 05:07:52;;;;;;;20.42;17.42;;;9.40;99.90;;;;;;5072141;28;20052;-48
2022/06/02 05:10:41;;;;;;;25.67;19.40;;;9.50;99.90;;;;;;5071194;28;20108;-47
2022/06/02 05:13:22;;;;;;;23.35;19.17;;;9.60;99.90;;;;;;5067213;28;20053;-46
2022/06/02 05:15:57;;;;;;;23.75;21.00;;;9.70;99.90;;;;;;5070620;28;20028;-47
2022/06/02 05:18:40;;;;;;;25.05;20.80;;;9.90;99.90;;;;;;5070674;28;20047;-47
2022/06/02 05:21:41;;;;;;;23.77;20.30;;;9.90;99.90;;;;;;5070248;28;20047;-48
2022/06/02 05:24:28;;;;;;;24.23;19.92;;;10.00;99.90;;;;;;5070085;28;20124;-47
2022/06/02 05:27:18;;;;;;;26.80;22.08;;;10.10;99.90;;;;;;5070942;28;20050;-47
2022/06/02 05:30:23;;;;;;;25.85;20.45;;;10.30;99.90;;;;;;5070076;28;20052;-49
2022/06/02 05:33:09;;;;;;;26.15;20.45;;;10.40;99.90;;;;;;5038252;28;20198;-47
2022/06/02 05:35:55;;;;;;;27.17;21.58;;;10.50;99.90;;;;;;5067110;28;20068;-47
2022/06/02 05:38:44;;;;;;;22.35;19.55;;;10.60;99.90;;;;;;5069758;28;20583;-47
2022/06/02 05:44:01;;;;;;;18.65;16.75;;;10.80;99.90;;;;;;5126934;27;20395;-48
2022/06/02 05:47:00;;;;;;;17.08;15.27;;;10.90;99.90;;;;;;5112909;28;20046;-49
2022/06/02 05:50:00;;;;;;;15.90;14.27;;;11.00;99.90;;;;;;5093678;28;20039;-49
2022/06/02 05:52:43;;;;;;;18.48;14.50;;;11.10;99.90;;;;;;5084335;28;20048;-50
2022/06/02 05:55:26;;;;;;;16.58;14.68;;;11.20;99.90;;;;;;5086846;28;20039;-48
2022/06/02 05:58:11;;;;;;;15.90;14.25;;;11.30;99.90;;;;;;5088644;28;20041;-49
2022/06/02 06:00:40;;;;;;;16.20;14.32;;;11.40;99.90;;;;;;5099567;28;20439;-49
2022/06/02 06:03:39;;;;;;;18.10;13.10;;;11.50;99.90;;;;;;5105844;28;20054;-48
2022/06/02 06:06:20;;;;;;;15.65;13.88;;;11.60;99.90;;;;;;5107135;28;20043;-48
2022/06/02 06:09:12;;;;;;;13.60;12.20;;;11.70;99.90;;;;;;5107650;28;20043;-48
2022/06/02 06:12:10;;;;;;;15.75;11.65;;;11.80;99.90;;;;;;5104689;28;20071;-47
2022/06/02 06:14:39;;;;;;;;;;;11.90;99.90;;;;;;5106923;28;20046;-48
2022/06/02 06:17:37;;;;;;;11.98;10.80;;;11.90;99.90;;;;;;5106908;28;20278;-48
2022/06/02 06:20:12;;;;;;;13.35;10.20;;;12.00;99.90;;;;;;5107243;28;20119;-48
2022/06/02 06:23:01;;;;;;;12.75;11.48;;;12.10;99.90;;;;;;5103696;28;20062;-49
2022/06/02 06:25:42;;;;;;;13.10;11.25;;;12.20;99.90;;;;;;5096243;28;20070;-48
2022/06/02 06:28:15;;;;;;;10.43;9.10;;;12.20;99.90;;;;;;5094676;28;20039;-48
2022/06/02 06:31:02;;;;;;;9.90;9.00;;;12.30;99.90;;;;;;5090445;28;20092;-48
2022/06/02 06:33:42;;;;;;;15.20;9.95;;;12.40;99.90;;;;;;5092128;28;20036;-49
2022/06/02 06:36:22;;;;;;;9.23;8.35;;;12.40;99.90;;;;;;5086450;28;20044;-48
2022/06/02 06:39:29;;;;;;;8.70;7.85;;;12.50;99.90;;;;;;5085446;28;20071;-47
2022/06/02 06:42:12;;;;;;;11.13;7.80;;;12.60;99.90;;;;;;5092991;28;20101;-48
2022/06/02 06:45:14;;;;;;;6.70;6.00;;;12.70;99.90;;;;;;5100607;28;20116;-48
2022/06/02 06:47:57;;;;;;;11.55;5.47;;;12.80;99.90;;;;;;5105196;28;20126;-48
2022/06/02 06:50:43;;;;;;;4.90;4.50;;;12.90;99.90;;;;;;5097625;28;20031;-49
2022/06/02 06:53:23;;;;;;;8.57;5.57;;;13.00;99.90;;;;;;5092511;28;20056;-48
2022/06/02 06:55:51;;;;;;;5.50;5.05;;;13.10;99.90;;;;;;5084830;28;20043;-49
2022/06/02 06:58:22;;;;;;;7.78;4.80;;;13.10;99.90;;;;;;5093067;28;20040;-51
2022/06/02 07:01:06;;;;;;;8.45;5.72;;;13.20;99.90;;;;;;5086294;28;20036;-48
2022/06/02 07:03:39;;;;;;;6.00;5.38;;;13.30;99.90;;;;;;5084185;28;20051;-48
2022/06/02 07:06:33;;;;;;;7.53;4.85;;;13.30;99.90;;;;;;5080570;28;20077;-48
2022/06/02 07:09:18;;;;;;;5.97;4.30;;;13.40;99.90;;;;;;5083671;28;20326;-48
2022/06/02 07:15:09;;;;;;;4.03;3.42;;;13.70;99.90;;;;;;5080129;28;20045;-49
2022/06/02 07:17:43;;;;;;;7.30;3.13;;;13.80;99.90;;;;;;5081326;28;20486;-48
2022/06/02 07:20:18;;;;;;;3.55;2.53;;;13.90;99.90;;;;;;5081224;28;20486;-48
2022/06/02 07:23:05;;;;;;;4.78;3.30;;;14.00;99.90;;;;;;5082469;28;20040;-49
2022/06/02 07:25:44;;;;;;;3.72;3.30;;;14.10;99.90;;;;;;5076351;28;20044;-48
2022/06/02 07:28:18;;;;;;;4.13;3.83;;;14.20;99.90;;;;;;5072129;28;20040;-49
2022/06/02 07:31:20;;;;;;;3.30;3.10;;;14.10;99.90;;;;;;5072168;28;20037;-49
2022/06/02 07:34:09;;;;;;;4.22;3.42;;;14.10;99.90;;;;;;5034595;28;20049;-48
2022/06/02 07:36:49;;;;;;;6.22;3.20;;;14.10;99.90;;;;;;5071376;28;20036;-50
2022/06/02 07:39:43;;;;;;;8.50;1.90;;;14.10;99.90;;;;;;5072064;28;20524;-49
2022/06/02 07:42:21;;;;;;;3.42;1.20;;;14.10;99.90;;;;;;5070804;28;20091;-52
2022/06/02 07:45:08;;;;;;;2.85;1.40;;;14.10;99.90;;;;;;5079139;28;20036;-49
2022/06/02 07:47:37;;;;;;;2.92;1.48;;;14.10;99.90;;;;;;5071652;28;20404;-48
2022/06/02 07:50:24;;;;;;;1.83;1.00;;;14.20;99.90;;;;;;5072131;28;20094;-49
2022/06/02 07:53:27;;;;;;;3.53;1.63;;;14.20;99.90;;;;;;5086739;28;20079;-50
2022/06/02 07:56:36;;;;;;;2.90;2.25;;;14.40;99.90;;;;;;5089345;28;20086;-48
2022/06/02 07:59:23;;;;;;;2.25;2.05;;;14.50;99.90;;;;;;5065406;28;20056;-49
2022/06/02 08:02:10;;;;;;;;;;;14.70;99.90;;;;;;5081663;28;20047;-48
2022/06/02 08:04:52;;;;;;;3.17;1.90;;;14.70;99.90;;;;;;5072547;28;19924;-48
2022/06/02 08:07:44;;;;;;;2.55;1.20;;;14.80;99.90;;;;;;5075846;28;20040;-48
2022/06/02 08:10:30;;;;;;;2.17;2.03;;;14.80;99.90;;;;;;5073651;28;20048;-49
2022/06/02 08:13:02;;;;;;;1.52;1.00;;;14.90;99.90;;;;;;5069775;28;20040;-49
2022/06/02 08:15:50;;;;;;;1.55;1.45;;;15.00;99.90;;;;;;5088938;28;20118;-49
2022/06/02 08:18:26;;;;;;;4.78;2.03;;;15.10;99.90;;;;;;5075051;28;20044;-49
2022/06/02 08:21:15;;;;;;;2.63;1.55;;;15.20;99.90;;;;;;5089381;28;20421;-49
2022/06/02 08:23:59;;;;;;;14.98;2.10;;;15.30;99.90;;;;;;5077079;28;20037;-48
2022/06/02 08:26:36;;;;;;;4.07;1.70;;;15.40;99.90;;;;;;5070184;28;20064;-49
2022/06/02 08:29:14;;;;;;;2.83;1.83;;;15.50;99.90;;;;;;5083192;28;20097;-48
2022/06/02 08:32:32;;;;;;;5.47;1.75;;;15.60;99.90;;;;;;5070143;28;20494;-49
2022/06/02 08:35:14;;;;;;;3.70;1.20;;;15.50;99.90;;;;;;5065356;28;20175;-49
2022/06/02 08:38:12;;;;;;;1.98;1.63;;;15.50;99.90;;;;;;5069628;28;20049;-49
2022/06/02 08:40:57;;;;;;;1.65;1.27;;;15.60;99.90;;;;;;5063848;28;21034;-49
2022/06/02 08:43:42;;;;;;;1.73;1.42;;;15.60;99.90;;;;;;5059338;28;20398;-48
2022/06/02 08:46:27;;;;;;;2.10;1.42;;;15.60;99.90;;;;;;5066086;28;20040;-48
2022/06/02 08:49:08;;;;;;;3.03;1.20;;;15.70;99.90;;;;;;5048974;28;20033;-48
2022/06/02 08:52:12;;;;;;;2.47;1.02;;;15.70;99.90;;;;;;5065398;28;20037;-49
2022/06/02 08:55:02;;;;;;;1.38;1.17;;;15.70;99.90;;;;;;5064889;28;20079;-48
2022/06/02 08:58:11;;;;;;;1.50;1.02;;;15.60;99.90;;;;;;5063406;28;20067;-48
2022/06/02 09:00:53;;;;;;;3.65;1.40;;;15.60;99.90;;;;;;5065531;28;20037;-49
2022/06/02 09:03:49;;;;;;;2.10;1.00;;;15.70;99.90;;;;;;5059650;28;20056;-48
2022/06/02 09:06:42;;;;;;;1.50;0.88;;;15.90;99.90;;;;;;5064416;28;20063;-48
2022/06/02 09:09:28;;;;;;;2.20;1.30;;;16.10;99.90;;;;;;5065101;28;20036;-49
2022/06/02 09:12:05;;;;;;;4.07;0.95;;;16.10;99.90;;;;;;5088148;28;20092;-50
2022/06/02 09:14:43;;;;;;;2.83;0.95;;;16.10;99.90;;;;;;5075679;28;20040;-51
2022/06/02 09:17:20;;;;;;;2.88;1.33;;;16.20;99.90;;;;;;5081654;28;20044;-48
2022/06/02 09:20:25;;;;;;;4.43;1.08;;;16.40;99.90;;;;;;5079529;28;20032;-48
2022/06/02 09:23:03;;;;;;;4.10;1.00;;;16.50;99.90;;;;;;5085056;28;20032;-48
2022/06/02 09:25:41;;;;;;;1.65;0.60;;;16.60;99.90;;;;;;5081607;28;20032;-49
2022/06/02 09:28:34;;;;;;;6.63;0.98;;;16.60;99.90;;;;;;5074083;28;20059;-49
2022/06/02 09:31:35;;;;;;;8.07;0.82;;;16.50;99.80;;;;;;5069955;28;20112;-49
2022/06/02 09:34:48;;;;;;;0.80;0.60;;;16.50;99.70;;;;;;5068635;28;20133;-49
2022/06/02 09:37:32;;;;;;;3.05;0.80;;;16.60;99.80;;;;;;5072708;28;20425;-49
2022/06/02 09:40:15;;;;;;;3.00;1.17;;;16.60;99.70;;;;;;5075707;28;20044;-48
2022/06/02 09:43:00;;;;;;;6.38;1.23;;;16.70;99.90;;;;;;5076065;28;20044;-49
2022/06/02 09:45:52;;;;;;;3.55;1.20;;;16.70;99.70;;;;;;5069779;28;20497;-48
2022/06/02 09:49:05;;;;;;;2.42;1.48;;;16.70;99.90;;;;;;5068126;28;20103;-48
2022/06/02 09:51:53;;;;;;;2.25;0.93;;;16.60;99.80;;;;;;5064566;28;20041;-49
2022/06/02 09:55:03;;;;;;;3.53;1.55;;;16.60;99.90;;;;;;5067716;28;20041;-49
2022/06/02 09:57:55;;;;;;;3.53;1.17;;;16.70;99.90;;;;;;5086543;28;20043;-48
2022/06/02 10:01:05;;;;;;;1.48;1.02;;;16.80;99.90;;;;;;5070552;28;20547;-49
2022/06/02 10:03:52;;;;;;;3.20;1.13;;;17.00;99.50;;;;;;5079442;28;20044;-48
2022/06/02 10:06:54;;;;;;;3.63;0.90;;;17.10;99.30;;;;;;5072385;28;20487;-47
2022/06/02 10:09:44;;;;;;;2.63;0.90;;;17.10;99.20;;;;;;5074419;28;20043;-49
2022/06/02 10:15:34;;;;;;;2.25;1.00;;;17.00;99.70;;;;;;5079268;28;20040;-48
2022/06/02 10:18:09;;;;;;;2.42;0.70;;;17.10;99.90;;;;;;5088437;28;20075;-48
2022/06/02 10:20:50;;;;;;;1.73;0.77;;;17.20;98.70;;;;;;5076464;28;20611;-48
2022/06/02 10:23:53;;;;;;;0.82;0.65;;;17.30;98.50;;;;;;5071974;28;20070;-49
2022/06/02 10:26:33;;;;;;;1.48;0.70;;;17.40;97.30;;;;;;5079576;28;20127;-45
2022/06/02 10:29:15;;;;;;;1.90;1.33;;;17.50;98.80;;;;;;5080220;28;20033;-45
2022/06/02 10:31:43;;;;;;;3.13;0.82;;;17.50;98.30;;;;;;5081237;28;20440;-46
2022/06/02 10:34:36;;;;;;;2.20;0.63;;;17.60;97.90;;;;;;5082404;28;20459;-46
2022/06/02 10:37:14;;;;;;;1.33;1.02;;;17.60;97.40;;;;;;5083144;28;20383;-45
2022/06/02 10:40:18;;;;;;;2.75;1.15;;;17.60;97.80;;;;;;5076876;28;20509;-45
2022/06/02 10:42:55;;;;;;;2.72;1.02;;;17.70;97.90;;;;;;5073400;28;20090;-46
2022/06/02 10:46:00;;;;;;;5.07;1.30;;;17.60;97.70;;;;;;5085559;28;20040;-46
2022/06/02 10:48:49;;;;;;;1.63;1.23;;;17.60;97.30;;;;;;5084232;28;20508;-46
2022/06/02 10:51:39;;;;;;;1.48;0.60;;;17.70;98.50;;;;;;5087681;28;20037;-46
2022/06/02 10:54:23;;;;;;;3.78;0.70;;;17.80;97.70;;;;;;5073704;28;20036;-45
2022/06/02 10:57:13;;;;;;;2.75;0.98;;;17.90;97.70;;;;;;5091407;28;20044;-45
2022/06/02 11:00:02;;;;;;;1.05;0.77;;;18.10;97.60;;;;;;5088107;28;20482;-46
2022/06/02 11:02:44;;;;;;;2.53;0.80;;;18.10;96.90;;;;;;5071793;28;20101;-46
2022/06/02 11:05:31;;;;;;;2.85;0.80;;;18.00;96.90;;;;;;5079768;28;20039;-46
2022/06/02 11:08:02;;;;;;;1.95;0.80;;;17.90;96.30;;;;;;5092323;28;20036;-46
2022/06/02 11:10:49;;;;;;;0.77;0.50;;;17.90;96.40;;;;;;5083608;28;20547;-46
2022/06/02 11:13:52;;;;;;;0.98;0.70;;;17.90;96.40;;;;;;5085337;28;20044;-46
2022/06/02 11:16:54;;;;;;;1.00;0.70;;;17.80;96.40;;;;;;5085432;28;20072;-47
2022/06/02 11:20:02;;;;;;;0.95;0.55;;;17.80;96.60;;;;;;5072813;28;20110;-46
2022/06/02 11:22:33;;;;;;;0.85;0.63;;;17.90;95.90;;;;;;5071317;28;20156;-46
2022/06/02 11:25:38;;;;;;;1.05;0.82;;;18.00;96.00;;;;;;5071704;28;20040;-46
2022/06/02 11:28:40;;;;;;;1.88;0.70;;;18.10;96.00;;;;;;5072145;28;20532;-46
2022/06/02 11:31:52;;;;;;;2.28;0.65;;;18.10;94.90;;;;;;5079482;28;20048;-46
2022/06/02 11:34:33;;;;;;;3.92;1.30;;;18.10;96.30;;;;;;5081732;28;20027;-46
2022/06/02 11:37:05;;;;;;;10.00;1.20;;;18.10;96.30;;;;;;5089488;28;20123;-46
2022/06/02 11:39:52;;;;;;;1.17;0.90;;;18.20;96.80;;;;;;5075031;28;20072;-46
2022/06/02 11:42:30;;;;;;;2.10;0.70;;;18.30;96.80;;;;;;5079071;28;20052;-46
2022/06/02 11:45:02;;;;;;;3.20;1.00;;;18.40;95.20;;;;;;5072207;28;20039;-46
2022/06/02 11:47:59;;;;;;;1.60;0.50;;;18.50;95.20;;;;;;5083941;28;20025;-46
2022/06/02 11:50:32;;;;;;;;;;;18.60;93.70;;;;;;5072281;28;20604;-45
2022/06/02 11:53:06;;;;;;;2.65;0.80;;;18.70;95.20;;;;;;5080679;28;19916;-46
2022/06/02 11:56:11;;;;;;;1.85;0.68;;;18.80;94.40;;;;;;5091883;28;20044;-45
2022/06/02 11:58:49;;;;;;;1.42;0.45;;;18.90;93.60;;;;;;5092060;28;20046;-46
2022/06/02 12:01:39;;;;;;;0.57;0.38;;;18.90;93.50;;;;;;5083772;28;20070;-46
2022/06/02 12:04:11;;;;;;;1.70;0.50;;;18.90;93.60;;;;;;5079634;28;20055;-46
2022/06/02 12:06:59;;;;;;;1.52;0.60;;;18.80;94.20;;;;;;5073646;28;20072;-46
2022/06/02 12:09:37;;;;;;;2.38;0.90;;;18.90;93.30;;;;;;5079330;28;20443;-46
2022/06/02 12:12:16;;;;;;;1.73;0.35;;;19.00;94.00;;;;;;5090904;28;20134;-46
2022/06/02 12:15:16;;;;;;;3.20;0.40;;;19.00;93.10;;;;;;5089970;28;20044;-46
2022/06/02 12:18:03;;;;;;;1.17;0.30;;;18.90;92.60;;;;;;5090560;28;20560;-45
2022/06/02 12:20:54;;;;;;;;;;;18.90;93.20;;;;;;5092101;28;20044;-46
2022/06/02 12:23:50;;;;;;;2.58;0.60;;;18.80;91.70;;;;;;5074558;28;20010;-46
2022/06/02 12:26:43;;;;;;;1.23;0.50;;;18.80;91.70;;;;;;5071025;28;20044;-46
2022/06/02 12:29:24;;;;;;;1.50;0.52;;;18.70;91.00;;;;;;5079373;28;20062;-46
2022/06/02 12:32:10;;;;;;;1.75;0.80;;;18.70;91.40;;;;;;5089170;28;20076;-45
2022/06/02 12:34:41;;;;;;;1.42;0.45;;;18.70;92.00;;;;;;5083671;28;20040;-45
2022/06/02 12:37:15;;;;;;;1.10;0.60;;;18.80;91.70;;;;;;5089285;28;20119;-46
2022/06/02 12:40:06;;;;;;;0.80;0.40;;;18.70;91.90;;;;;;5090622;28;20078;-46
2022/06/02 12:42:47;;;;;;;1.00;0.60;;;18.70;92.00;;;;;;5078459;28;20127;-46
2022/06/02 12:45:27;;;;;;;1.85;0.63;;;18.70;91.50;;;;;;5083673;28;20107;-46
2022/06/02 12:48:14;;;;;;;0.70;0.45;;;18.70;91.60;;;;;;5084272;28;20036;-46
2022/06/02 12:51:29;;;;;;;3.57;0.70;;;18.60;91.20;;;;;;5091042;28;20036;-47
2022/06/02 12:54:16;;;;;;;0.90;0.38;;;18.60;90.60;;;;;;5046677;28;20260;-47
2022/06/02 12:57:04;;;;;;;1.10;0.28;;;18.60;91.50;;;;;;5047866;28;20459;-45
2022/06/02 13:00:02;;;;;;;1.40;0.30;;;18.50;91.60;;;;;;5012316;28;20132;-46
2022/06/02 13:02:45;;;;;;;1.60;0.38;;;18.50;91.80;;;;;;5027140;28;20041;-48
2022/06/02 13:05:47;;;;;;;2.08;0.50;;;18.70;91.60;;;;;;5045424;28;20056;-45
2022/06/02 13:08:37;;;;;;;1.90;0.50;;;18.80;91.80;;;;;;5046020;28;20498;-45
2022/06/02 13:11:12;;;;;;;1.05;0.47;;;19.10;93.20;;;;;;5046003;28;20045;-49
2022/06/02 13:13:45;;;;;;;1.02;0.30;;;19.20;93.10;;;;;;5047024;28;20045;-47
2022/06/02 13:16:44;;;;;;;1.15;0.35;;;19.40;93.20;;;;;;5047288;28;20413;-46
2022/06/02 13:19:36;;;;;;;0.50;0.30;;;19.50;91.10;;;;;;5046538;28;20110;-46
2022/06/02 13:22:31;;;;;;;0.77;0.40;;;19.50;90.40;;;;;;5028355;28;20053;-47
2022/06/02 13:25:47;;;;;;;1.15;0.85;;;19.30;90.10;;;;;;5056064;28;20374;-46
2022/06/02 13:28:45;;;;;;;0.50;0.30;;;19.10;90.20;;;;;;5070332;28;20515;-46
2022/06/02 13:31:14;;;;;;;2.53;0.40;;;19.00;90.70;;;;;;5086041;28;20415;-46
2022/06/02 13:34:07;;;;;;;0.50;0.50;;;19.10;90.90;;;;;;5089205;28;20123;-46
2022/06/02 13:36:45;;;;;;;6.97;0.63;;;19.20;91.40;;;;;;5084386;28;20266;-46
2022/06/02 13:39:47;;;;;;;0.40;0.20;;;19.30;90.40;;;;;;5089238;28;20043;-46
2022/06/02 13:42:22;;;;;;;0.60;0.30;;;19.40;91.50;;;;;;5089338;28;20059;-45
2022/06/02 13:45:22;;;;;;;1.65;0.20;;;19.60;91.10;;;;;;5086934;28;20170;-47
2022/06/02 13:48:05;;;;;;;2.40;0.40;;;19.70;90.60;;;;;;5070926;28;20044;-47
2022/06/02 13:50:37;;;;;;;0.63;0.40;;;19.90;90.20;;;;;;5069786;28;20071;-46
2022/06/02 13:53:33;;;;;;;1.75;0.20;;;20.00;90.00;;;;;;5068450;28;20305;-46
2022/06/02 13:59:11;;;;;;;0.40;0.30;;;19.90;88.40;;;;;;5089515;28;20044;-49
2022/06/02 14:02:22;;;;;;;1.50;0.30;;;19.80;85.10;;;;;;5077967;28;20032;-49
2022/06/02 14:05:14;;;;;;;1.23;0.22;;;19.80;82.90;;;;;;5061273;28;20518;-49
2022/06/02 14:07:47;;;;;;;1.33;0.20;;;19.90;88.30;;;;;;5072591;28;20067;-50
2022/06/02 14:11:08;;;;;;;0.32;0.20;;;19.90;84.50;;;;;;5073384;28;20040;-45
2022/06/02 14:14:00;;;;;;;2.13;0.30;;;20.00;81.60;;;;;;5065234;28;20421;-46
2022/06/02 14:16:51;;;;;;;2.58;0.30;;;19.80;83.80;;;;;;5076773;28;20044;-45
2022/06/02 14:19:19;;;;;;;1.38;0.22;;;19.80;85.30;;;;;;5080696;28;20073;-45
2022/06/02 14:22:09;;;;;;;0.43;0.22;;;19.80;85.60;;;;;;5073775;28;20040;-44
2022/06/02 14:24:37;;;;;;;2.03;0.40;;;19.70;85.30;;;;;;5093127;28;20040;-46
2022/06/02 14:27:06;;;;;;;2.95;0.30;;;19.80;86.20;;;;;;5092826;28;20489;-46
2022/06/02 14:30:10;;;;;;;4.68;0.30;;;19.80;87.80;;;;;;5087026;28;20040;-45
2022/06/02 14:32:48;;;;;;;2.38;0.30;;;19.90;85.10;;;;;;5072921;28;20044;-46
2022/06/02 14:35:46;;;;;;;4.50;0.60;;;20.00;86.10;;;;;;5072713;28;20044;-47
2022/06/02 14:38:27;;;;;;;1.40;0.20;;;20.10;83.20;;;;;;5085273;28;20051;-45
2022/06/02 14:41:18;;;;;;;0.75;0.28;;;20.20;83.10;;;;;;5073266;28;20068;-47